Miyazaki Airport, Japan

11:59 PM JST on October 01, 2014 (GMT +0900)
Kagoshima | Change Station
CLOSE
Current Station
Airport
Location: Kagoshima Airport,
Elevation: 902 ft
Nearby Weather Stations

Elev 902 ft 31.80 °N, 130.72 °E | Updated 2 hours ago

Mostly Cloudy
Mostly Cloudy
70 °F
Feels Like 70 °F
N
6
Wind Variable Wind from ESE

Today
High -- | Low -- °F
--% Chance of Precip.
Yesterday
High -- | Low -- °F
Precip. -- in
6:07 AM 5:59 PM
Waxing Crescent, 48% visible
Pressure 29.98 in
Visibility 6.2 miles
Clouds Few 1000 ft
Scattered Clouds 3000 ft
Mostly Cloudy 11000 ft
Dew Point 64 °F
Humidity 83%
Rainfall 0.00 in
Snow Depth Not available.
UV 0 out of 12
Pollen Not available.
Air Quality Not available.
Flu Activity Not available.
METAR RJFK 011200Z 11005KT 9999 FEW010 SCT030 BKN110 21/18 Q1015 RMK 1CU010 4SC030 6AC110 A2997

More Conditions Fewer Conditions

Pressure 29.98 in
Visibility 6.2 miles
Clouds Few 1000 ft
Scattered Clouds 3000 ft
Mostly Cloudy 11000 ft
Dew Point 64 °F
Humidity 83%
Rainfall 0.00 in
Snow Depth Not available.
UV 0 out of 12
Pollen Not available.
Air Quality Not available.
Flu Activity Not available.
METAR RJFK 011200Z 11005KT 9999 FEW010 SCT030 BKN110 21/18 Q1015 RMK 1CU010 4SC030 6AC110 A2997

More Conditions Fewer Conditions

10-Day Weather Forecast

Almanac

Astronomy

Oct. 01, 2014 Rise Set
Actual Time 6:07 AM JST 5:59 PM JST
Civil Twilight 5:43 AM JST 6:24 PM JST
Nautical Twilight 5:15 AM JST 6:52 PM JST
Astronomical Twilight 4:46 AM JST 7:20 PM JST
Moon 12:20 PM JST 11:08 PM JST
Length of Visible Light 12h 40m
Length of Day
11h 52m
Tomorrow will be 1m 55s shorter.
Waxing Crescent, 48% of the Moon is Illuminated
Today
Waxing Crescent
Oct 1
First Quarter
Oct 8
Full
Oct 15
Last Quarter
Oct 23
New

Today's Extremes

Country Highs Country Lows

Community

WunderPhotos

Upload Photos

1,757,960 photos uploaded!

Nearby

Snow Depth

Not available.

Earthquake Activity

City Distance Mag. Time & Date
No recent earthquake activity has been reported nearby.
Minimum magnitude displayed is 2.5.

Coastal Water Temperatures

Place Temperature
No Stations Reporting

Nearby Weather Stations